Time,TemperatureF,DewpointF,PressureIn,WindDirection,WindDirectionDegrees,WindSpeedMPH,WindSpeedGustMPH,Humidity,HourlyPrecipIn,Conditions,Clouds,dailyrainin,SoftwareType,DateUTC
2013-06-17 00:02:00,75.7,73.0,30.06,East,87,0.0,1.0,92,0.26,,,0.86,weatherlink.com 1.10,2013-06-17 04:02:00,
2013-06-17 00:17:00,75.6,74.0,30.06,East,87,2.0,3.0,94,0.26,,,0.86,weatherlink.com 1.10,2013-06-17 04:17:00,
2013-06-17 00:32:00,75.8,74.0,30.06,East,91,0.0,2.0,94,0.26,,,0.86,weatherlink.com 1.10,2013-06-17 04:32:00,
2013-06-17 00:47:00,75.9,74.0,30.07,East,90,0.0,1.0,95,0.00,,,0.86,weatherlink.com 1.10,2013-06-17 04:47:00,
2013-06-17 01:02:00,76.1,75.0,30.06,ESE,117,0.0,0.0,95,0.00,,,0.86,weatherlink.com 1.10,2013-06-17 05:02:00,
2013-06-17 01:17:00,76.3,74.0,30.07,East,101,0.0,3.0,93,0.00,,,0.86,weatherlink.com 1.10,2013-06-17 05:17:00,
2013-06-17 01:32:00,76.2,74.0,30.06,East,99,0.0,0.0,93,0.00,,,0.86,weatherlink.com 1.10,2013-06-17 05:32:00,
2013-06-17 01:47:00,76.3,75.0,30.06,East,99,0.0,0.0,94,0.00,,,0.86,weatherlink.com 1.10,2013-06-17 05:47:00,
2013-06-17 02:02:00,76.2,75.0,30.05,East,99,0.0,0.0,95,0.00,,,0.86,weatherlink.com 1.10,2013-06-17 06:02:00,
2013-06-17 02:17:00,76.2,75.0,30.04,East,99,0.0,0.0,95,0.00,,,0.86,weatherlink.com 1.10,2013-06-17 06:17:00,
2013-06-17 02:32:00,76.4,75.0,30.04,East,98,0.0,0.0,95,0.00,,,0.86,weatherlink.com 1.10,2013-06-17 06:32:00,
2013-06-17 02:47:00,76.6,75.0,30.03,NNW,333,0.0,0.0,96,0.00,,,0.86,weatherlink.com 1.10,2013-06-17 06:47:00,
2013-06-17 03:02:00,76.6,75.0,30.03,NNW,333,0.0,0.0,95,0.00,,,0.86,weatherlink.com 1.10,2013-06-17 07:02:00,
2013-06-17 03:17:00,76.4,75.0,30.02,NNW,333,0.0,0.0,95,0.00,,,0.86,weatherlink.com 1.10,2013-06-17 07:17:00,
2013-06-17 03:32:00,76.4,74.0,30.02,NW,321,0.0,0.0,93,0.00,,,0.86,weatherlink.com 1.10,2013-06-17 07:32:00,
2013-06-17 03:47:00,76.8,75.0,30.02,East,98,0.0,0.0,94,0.00,,,0.86,weatherlink.com 1.10,2013-06-17 07:47:00,
2013-06-17 04:02:00,76.7,75.0,30.02,ESE,114,0.0,0.0,95,0.00,,,0.86,weatherlink.com 1.10,2013-06-17 08:02:00,
2013-06-17 04:17:00,76.4,75.0,30.02,ESE,114,0.0,0.0,95,0.00,,,0.86,weatherlink.com 1.10,2013-06-17 08:17:00,
2013-06-17 04:32:00,76.1,75.0,30.01,ESE,114,0.0,0.0,96,0.00,,,0.86,weatherlink.com 1.10,2013-06-17 08:32:00,
2013-06-17 04:47:00,75.8,75.0,30.01,ESE,114,0.0,0.0,96,0.00,,,0.86,weatherlink.com 1.10,2013-06-17 08:47:00,
2013-06-17 05:02:00,75.7,75.0,30.01,ESE,114,0.0,0.0,96,0.00,,,0.86,weatherlink.com 1.10,2013-06-17 09:02:00,
2013-06-17 05:17:00,75.4,75.0,30.02,ESE,114,0.0,0.0,97,0.00,,,0.86,weatherlink.com 1.10,2013-06-17 09:17:00,
2013-06-17 05:32:00,75.5,75.0,30.02,ESE,114,0.0,0.0,97,0.00,,,0.86,weatherlink.com 1.10,2013-06-17 09:32:00,
2013-06-17 05:47:00,75.6,75.0,30.03,ESE,114,0.0,0.0,97,0.00,,,0.86,weatherlink.com 1.10,2013-06-17 09:47:00,
2013-06-17 06:02:00,75.7,75.0,30.03,ENE,78,0.0,0.0,97,0.00,,,0.86,weatherlink.com 1.10,2013-06-17 10:02:00,
2013-06-17 06:17:00,75.6,75.0,30.03,ENE,77,0.0,0.0,97,0.00,,,0.86,weatherlink.com 1.10,2013-06-17 10:17:00,
2013-06-17 06:32:00,75.4,75.0,30.03,ENE,77,0.0,0.0,97,0.00,,,0.86,weatherlink.com 1.10,2013-06-17 10:32:00,
2013-06-17 06:47:00,75.4,75.0,30.03,ENE,77,0.0,0.0,98,0.00,,,0.86,weatherlink.com 1.10,2013-06-17 10:47:00,
2013-06-17 07:02:00,75.6,75.0,30.03,ESE,103,0.0,0.0,97,0.00,,,0.86,weatherlink.com 1.10,2013-06-17 11:02:00,
2013-06-17 07:17:00,76.4,76.0,30.03,ENE,76,0.0,0.0,97,0.00,,,0.86,weatherlink.com 1.10,2013-06-17 11:17:00,
2013-06-17 07:32:00,77.9,76.0,30.03,ENE,59,0.0,0.0,95,0.00,,,0.86,weatherlink.com 1.10,2013-06-17 11:32:00,
2013-06-17 07:47:00,79.8,77.0,30.04,SE,136,0.0,0.0,91,0.00,,,0.86,weatherlink.com 1.10,2013-06-17 11:47:00,
2013-06-17 08:02:00,81.1,77.0,30.04,ESE,110,0.0,0.0,88,0.00,,,0.86,weatherlink.com 1.10,2013-06-17 12:02:00,
2013-06-17 08:17:00,81.6,76.0,30.05,ESE,108,3.0,4.0,84,0.00,,,0.86,weatherlink.com 1.10,2013-06-17 12:17:00,
2013-06-17 08:32:00,82.0,77.0,30.05,ENE,74,2.0,3.0,84,0.00,,,0.86,weatherlink.com 1.10,2013-06-17 12:32:00,
2013-06-17 08:47:00,82.6,77.0,30.06,East,101,0.0,3.0,83,0.00,,,0.86,weatherlink.com 1.10,2013-06-17 12:47:00,
2013-06-17 09:02:00,83.3,77.0,30.06,East,91,1.0,3.0,81,0.00,,,0.86,weatherlink.com 1.10,2013-06-17 13:02:00,
2013-06-17 09:17:00,83.7,77.0,30.05,SE,145,1.0,4.0,80,0.00,,,0.86,weatherlink.com 1.10,2013-06-17 13:17:00,
2013-06-17 09:32:00,84.2,77.0,30.05,ESE,114,2.0,4.0,80,0.00,,,0.86,weatherlink.com 1.10,2013-06-17 13:32:00,
2013-06-17 09:47:00,84.5,77.0,30.05,East,89,4.0,6.0,79,0.00,,,0.86,weatherlink.com 1.10,2013-06-17 13:47:00,
2013-06-17 10:02:00,84.7,78.0,30.05,East,91,1.0,4.0,79,0.00,,,0.86,weatherlink.com 1.10,2013-06-17 14:02:00,
2013-06-17 10:17:00,85.1,77.0,30.05,ENE,75,2.0,3.0,76,0.00,,,0.86,weatherlink.com 1.10,2013-06-17 14:17:00,
2013-06-17 10:32:00,85.5,77.0,30.05,ENE,69,2.0,4.0,75,0.00,,,0.86,weatherlink.com 1.10,2013-06-17 14:32:00,
2013-06-17 10:47:00,86.3,78.0,30.05,ENE,66,1.0,3.0,76,0.00,,,0.86,weatherlink.com 1.10,2013-06-17 14:47:00,
2013-06-17 11:02:00,88.1,76.0,30.05,ENE,65,1.0,4.0,68,0.00,,,0.86,weatherlink.com 1.10,2013-06-17 15:02:00,
2013-06-17 11:17:00,88.1,75.0,30.06,ENE,75,3.0,4.0,66,0.00,,,0.86,weatherlink.com 1.10,2013-06-17 15:17:00,
2013-06-17 11:32:00,88.1,76.0,30.06,East,91,2.0,5.0,67,0.00,,,0.86,weatherlink.com 1.10,2013-06-17 15:32:00,
2013-06-17 11:48:00,87.8,76.0,30.06,East,82,2.0,4.0,67,0.00,,,0.86,weatherlink.com 1.10,2013-06-17 15:48:00,
2013-06-17 12:02:00,88.4,76.0,30.05,ENE,78,2.0,5.0,67,0.00,,,0.86,weatherlink.com 1.10,2013-06-17 16:02:00,
2013-06-17 12:17:00,88.3,75.0,30.05,SSE,165,0.0,3.0,65,0.00,,,0.86,weatherlink.com 1.10,2013-06-17 16:17:00,
2013-06-17 12:32:00,88.6,76.0,30.05,ENE,68,2.0,5.0,67,0.00,,,0.86,weatherlink.com 1.10,2013-06-17 16:32:00,
2013-06-17 12:47:00,89.6,74.0,30.05,ENE,72,3.0,5.0,61,0.00,,,0.86,weatherlink.com 1.10,2013-06-17 16:47:00,
2013-06-17 13:02:00,90.8,75.0,30.04,SW,232,2.0,5.0,61,0.00,,,0.86,weatherlink.com 1.10,2013-06-17 17:02:00,
2013-06-17 13:17:00,90.0,74.0,30.04,SE,126,1.0,4.0,60,0.00,,,0.00,weatherlink.com 1.10,2013-06-17 17:17:00,
2013-06-17 13:32:00,89.9,74.0,30.04,ENE,63,1.0,5.0,59,0.00,,,0.00,weatherlink.com 1.10,2013-06-17 17:32:00,
2013-06-17 13:47:00,91.9,74.0,30.03,SE,143,4.0,5.0,57,0.00,,,0.00,weatherlink.com 1.10,2013-06-17 17:47:00,
2013-06-17 14:02:00,92.2,74.0,30.03,NE,53,0.0,5.0,56,0.00,,,0.00,weatherlink.com 1.10,2013-06-17 18:02:00,
2013-06-17 14:17:00,92.2,75.0,30.02,ESE,110,1.0,3.0,58,0.00,,,0.00,weatherlink.com 1.10,2013-06-17 18:17:00,
2013-06-17 14:32:00,92.7,76.0,30.02,WNW,293,2.0,4.0,58,0.00,,,0.00,weatherlink.com 1.10,2013-06-17 18:32:00,
2013-06-17 14:47:00,93.3,75.0,30.02,North,359,1.0,6.0,56,0.00,,,0.00,weatherlink.com 1.10,2013-06-17 18:47:00,
2013-06-17 15:02:00,92.3,74.0,30.02,East,90,1.0,3.0,55,0.00,,,0.00,weatherlink.com 1.10,2013-06-17 19:02:00,
2013-06-17 15:17:00,90.7,76.0,30.01,WNW,300,2.0,6.0,62,0.00,,,0.00,weatherlink.com 1.10,2013-06-17 19:17:00,
2013-06-17 15:32:00,89.9,76.0,30.01,West,271,3.0,6.0,64,0.00,,,0.00,weatherlink.com 1.10,2013-06-17 19:32:00,
2013-06-17 15:47:00,90.8,76.0,30.01,NW,304,10.0,11.0,63,0.00,,,0.00,weatherlink.com 1.10,2013-06-17 19:47:00,
2013-06-17 16:02:00,89.1,76.0,30.01,West,274,7.0,12.0,66,0.00,,,0.00,weatherlink.com 1.10,2013-06-17 20:02:00,
2013-06-17 16:18:00,90.4,77.0,30.00,West,267,6.0,11.0,64,0.00,,,0.00,weatherlink.com 1.10,2013-06-17 20:18:00,
2013-06-17 16:33:00,90.9,76.0,29.99,WSW,250,3.0,9.0,62,0.00,,,0.00,weatherlink.com 1.10,2013-06-17 20:33:00,
2013-06-17 16:48:00,90.9,76.0,29.98,WNW,295,3.0,9.0,62,0.00,,,0.00,weatherlink.com 1.10,2013-06-17 20:48:00,
2013-06-17 17:03:00,91.1,76.0,29.98,WNW,297,1.0,8.0,62,0.00,,,0.00,weatherlink.com 1.10,2013-06-17 21:03:00,
2013-06-17 17:18:00,91.0,76.0,29.98,WNW,296,3.0,8.0,62,0.00,,,0.00,weatherlink.com 1.10,2013-06-17 21:18:00,
2013-06-17 17:33:00,91.0,77.0,29.99,West,277,3.0,10.0,63,0.00,,,0.00,weatherlink.com 1.10,2013-06-17 21:33:00,
2013-06-17 17:48:00,90.6,77.0,29.99,West,264,3.0,10.0,65,0.00,,,0.00,weatherlink.com 1.10,2013-06-17 21:48:00,
2013-06-17 18:03:00,90.2,77.0,29.99,West,281,4.0,10.0,66,0.00,,,0.00,weatherlink.com 1.10,2013-06-17 22:03:00,
2013-06-17 18:18:00,89.6,77.0,29.99,WNW,283,4.0,9.0,67,0.00,,,0.00,weatherlink.com 1.10,2013-06-17 22:18:00,
2013-06-17 18:33:00,88.9,77.0,29.98,WSW,246,7.0,9.0,67,0.00,,,0.00,weatherlink.com 1.10,2013-06-17 22:33:00,
2013-06-17 18:48:00,89.3,77.0,29.98,SW,222,5.0,7.0,67,0.00,,,0.00,weatherlink.com 1.10,2013-06-17 22:48:00,
2013-06-17 19:03:00,89.5,74.0,29.98,West,263,5.0,7.0,61,0.00,,,0.00,weatherlink.com 1.10,2013-06-17 23:03:00,
2013-06-17 19:18:00,89.6,74.0,29.99,WSW,252,4.0,9.0,61,0.00,,,0.00,weatherlink.com 1.10,2013-06-17 23:18:00,
2013-06-17 19:33:00,88.5,73.0,29.99,West,263,0.0,7.0,61,0.00,,,0.00,weatherlink.com 1.10,2013-06-17 23:33:00,
2013-06-17 19:48:00,88.1,74.0,30.00,SSE,167,2.0,5.0,63,0.00,,,0.00,weatherlink.com 1.10,2013-06-17 23:48:00,
2013-06-17 20:03:00,87.2,74.0,30.00,SW,222,2.0,4.0,65,0.00,,,0.00,weatherlink.com 1.10,2013-06-18 00:03:00,
2013-06-17 20:18:00,85.9,75.0,30.00,SW,236,0.0,5.0,69,0.00,,,0.00,weatherlink.com 1.10,2013-06-18 00:18:00,
2013-06-17 20:33:00,84.9,75.0,30.01,SSW,193,1.0,5.0,72,0.00,,,0.00,weatherlink.com 1.10,2013-06-18 00:33:00,
2013-06-17 20:48:00,84.3,75.0,30.01,WSW,246,3.0,4.0,74,0.00,,,0.00,weatherlink.com 1.10,2013-06-18 00:48:00,
2013-06-17 21:03:00,84.0,75.0,30.01,WSW,256,0.0,3.0,75,0.00,,,0.00,weatherlink.com 1.10,2013-06-18 01:03:00,
2013-06-17 21:18:00,83.6,76.0,30.02,WSW,252,0.0,2.0,77,0.00,,,0.00,weatherlink.com 1.10,2013-06-18 01:18:00,
2013-06-17 21:33:00,83.2,76.0,30.02,SW,226,1.0,1.0,78,0.00,,,0.00,weatherlink.com 1.10,2013-06-18 01:33:00,
2013-06-17 21:48:00,83.0,76.0,30.03,SW,231,0.0,3.0,79,0.00,,,0.00,weatherlink.com 1.10,2013-06-18 01:48:00,
2013-06-17 22:03:00,82.9,76.0,30.03,WSW,243,2.0,3.0,80,0.00,,,0.00,weatherlink.com 1.10,2013-06-18 02:03:00,
2013-06-17 22:18:00,82.7,76.0,30.05,WSW,243,0.0,4.0,81,0.00,,,0.00,weatherlink.com 1.10,2013-06-18 02:18:00,
2013-06-17 22:33:00,82.6,77.0,30.05,WSW,253,1.0,3.0,82,0.00,,,0.00,weatherlink.com 1.10,2013-06-18 02:33:00,
2013-06-17 22:48:00,82.4,77.0,30.05,WNW,283,1.0,3.0,83,0.00,,,0.00,weatherlink.com 1.10,2013-06-18 02:48:00,
2013-06-17 23:03:00,82.0,77.0,30.05,West,281,0.0,1.0,84,0.00,,,0.00,weatherlink.com 1.10,2013-06-18 03:03:00,
2013-06-17 23:18:00,81.7,77.0,30.06,SW,233,0.0,1.0,85,0.00,,,0.00,weatherlink.com 1.10,2013-06-18 03:18:00,
2013-06-17 23:33:00,81.9,77.0,30.06,West,273,1.0,2.0,85,0.00,,,0.00,weatherlink.com 1.10,2013-06-18 03:33:00,
2013-06-17 23:48:00,82.0,77.0,30.05,WNW,295,3.0,3.0,85,0.00,,,0.00,weatherlink.com 1.10,2013-06-18 03:48:00,